sensor_id;sensor_type;location;lat;lon;timestamp;temperature;humidity
17240;DHT22;9943;54.378;18.604;2022-09-09T03:45:53;9.90;99.90
17240;DHT22;9943;54.378;18.604;2022-09-09T03:48:24;12.80;99.90
17240;DHT22;9943;54.378;18.604;2022-09-09T03:50:53;12.30;99.90
17240;DHT22;9943;54.378;18.604;2022-09-09T03:53:25;12.30;99.90
17240;DHT22;9943;54.378;18.604;2022-09-09T03:55:55;12.20;99.90
17240;DHT22;9943;54.378;18.604;2022-09-09T03:58:27;12.20;99.90
17240;DHT22;9943;54.378;18.604;2022-09-09T04:00:59;12.20;99.90
17240;DHT22;9943;54.378;18.604;2022-09-09T04:03:33;12.20;99.90
17240;DHT22;9943;54.378;18.604;2022-09-09T04:06:05;12.20;99.90
17240;DHT22;9943;54.378;18.604;2022-09-09T04:08:36;12.20;99.90
17240;DHT22;9943;54.378;18.604;2022-09-09T04:11:06;12.10;99.90
17240;DHT22;9943;54.378;18.604;2022-09-09T04:13:37;12.10;99.90
17240;DHT22;9943;54.378;18.604;2022-09-09T04:16:10;12.20;99.90
17240;DHT22;9943;54.378;18.604;2022-09-09T04:18:43;12.10;99.90
17240;DHT22;9943;54.378;18.604;2022-09-09T04:21:11;12.20;99.90
17240;DHT22;9943;54.378;18.604;2022-09-09T04:23:40;11.60;99.90
17240;DHT22;9943;54.378;18.604;2022-09-09T04:26:07;12.00;99.90
17240;DHT22;9943;54.378;18.604;2022-09-09T04:28:36;12.10;99.90
17240;DHT22;9943;54.378;18.604;2022-09-09T04:31:11;12.00;99.90
17240;DHT22;9943;54.378;18.604;2022-09-09T04:33:41;12.10;99.90
17240;DHT22;9943;54.378;18.604;2022-09-09T04:36:08;12.10;99.90
17240;DHT22;9943;54.378;18.604;2022-09-09T04:38:42;12.10;99.90
17240;DHT22;9943;54.378;18.604;2022-09-09T04:41:12;11.40;99.90
17240;DHT22;9943;54.378;18.604;2022-09-09T04:43:41;12.10;99.90
17240;DHT22;9943;54.378;18.604;2022-09-09T04:46:09;12.10;99.90
17240;DHT22;9943;54.378;18.604;2022-09-09T04:48:37;12.10;99.90
17240;DHT22;9943;54.378;18.604;2022-09-09T04:51:12;12.10;99.90
17240;DHT22;9943;54.378;18.604;2022-09-09T04:53:42;12.10;99.90
17240;DHT22;9943;54.378;18.604;2022-09-09T04:56:11;11.90;99.90
17240;DHT22;9943;54.378;18.604;2022-09-09T04:58:39;12.00;99.90
17240;DHT22;9943;54.378;18.604;2022-09-09T05:01:12;12.00;99.90
17240;DHT22;9943;54.378;18.604;2022-09-09T05:03:40;12.10;99.90
17240;DHT22;9943;54.378;18.604;2022-09-09T05:06:09;12.10;99.90
17240;DHT22;9943;54.378;18.604;2022-09-09T05:08:41;12.00;99.90
17240;DHT22;9943;54.378;18.604;2022-09-09T05:11:16;12.80;99.90
17240;DHT22;9943;54.378;18.604;2022-09-09T05:14:09;12.10;99.90
17240;DHT22;9943;54.378;18.604;2022-09-09T05:16:47;12.00;99.90
17240;DHT22;9943;54.378;18.604;2022-09-09T05:19:19;11.90;99.90
17240;DHT22;9943;54.378;18.604;2022-09-09T05:21:53;12.00;99.90
17240;DHT22;9943;54.378;18.604;2022-09-09T05:24:23;12.00;99.90
17240;DHT22;9943;54.378;18.604;2022-09-09T05:26:51;12.00;99.90
17240;DHT22;9943;54.378;18.604;2022-09-09T05:29:20;12.00;99.90
17240;DHT22;9943;54.378;18.604;2022-09-09T05:31:52;11.90;99.90
17240;DHT22;9943;54.378;18.604;2022-09-09T05:34:23;12.10;99.90
17240;DHT22;9943;54.378;18.604;2022-09-09T05:36:53;12.10;99.90
17240;DHT22;9943;54.378;18.604;2022-09-09T05:39:27;12.00;99.90
17240;DHT22;9943;54.378;18.604;2022-09-09T05:41:55;12.50;99.90
17240;DHT22;9943;54.378;18.604;2022-09-09T05:44:24;12.00;99.90
17240;DHT22;9943;54.378;18.604;2022-09-09T05:46:59;11.90;99.90
17240;DHT22;9943;54.378;18.604;2022-09-09T05:49:30;11.90;99.90
17240;DHT22;9943;54.378;18.604;2022-09-09T05:51:58;11.90;99.90
17240;DHT22;9943;54.378;18.604;2022-09-09T05:54:26;11.90;99.90
17240;DHT22;9943;54.378;18.604;2022-09-09T05:56:54;11.80;99.90
17240;DHT22;9943;54.378;18.604;2022-09-09T05:59:22;11.70;99.90
17240;DHT22;9943;54.378;18.604;2022-09-09T06:01:50;11.80;99.90
17240;DHT22;9943;54.378;18.604;2022-09-09T06:04:20;11.60;99.90
17240;DHT22;9943;54.378;18.604;2022-09-09T06:06:48;11.70;99.90
17240;DHT22;9943;54.378;18.604;2022-09-09T06:09:16;11.80;99.90
17240;DHT22;9943;54.378;18.604;2022-09-09T06:11:44;11.80;99.90
17240;DHT22;9943;54.378;18.604;2022-09-09T06:14:12;11.80;99.90
17240;DHT22;9943;54.378;18.604;2022-09-09T06:16:40;11.70;99.90
17240;DHT22;9943;54.378;18.604;2022-09-09T06:19:10;11.70;99.90
17240;DHT22;9943;54.378;18.604;2022-09-09T06:21:44;11.70;99.90
17240;DHT22;9943;54.378;18.604;2022-09-09T06:24:13;11.60;99.90
17240;DHT22;9943;54.378;18.604;2022-09-09T06:26:44;11.70;99.90
17240;DHT22;9943;54.378;18.604;2022-09-09T06:29:12;11.50;99.90
17240;DHT22;9943;54.378;18.604;2022-09-09T06:31:42;11.50;99.90
17240;DHT22;9943;54.378;18.604;2022-09-09T06:34:16;11.60;99.90
17240;DHT22;9943;54.378;18.604;2022-09-09T06:36:45;11.50;99.90
17240;DHT22;9943;54.378;18.604;2022-09-09T06:39:13;11.50;99.90
17240;DHT22;9943;54.378;18.604;2022-09-09T06:41:43;11.50;99.90
17240;DHT22;9943;54.378;18.604;2022-09-09T06:44:13;11.40;99.90
17240;DHT22;9943;54.378;18.604;2022-09-09T06:46:42;11.40;99.90
17240;DHT22;9943;54.378;18.604;2022-09-09T06:49:15;11.50;99.90
17240;DHT22;9943;54.378;18.604;2022-09-09T06:51:45;11.50;99.90
17240;DHT22;9943;54.378;18.604;2022-09-09T06:54:17;11.40;99.90
17240;DHT22;9943;54.378;18.604;2022-09-09T06:56:50;11.20;99.90
17240;DHT22;9943;54.378;18.604;2022-09-09T06:59:18;11.40;99.90
17240;DHT22;9943;54.378;18.604;2022-09-09T07:01:46;11.30;99.90
17240;DHT22;9943;54.378;18.604;2022-09-09T07:04:18;11.50;99.90
17240;DHT22;9943;54.378;18.604;2022-09-09T07:06:47;11.40;99.90
17240;DHT22;9943;54.378;18.604;2022-09-09T07:09:15;11.30;99.90
17240;DHT22;9943;54.378;18.604;2022-09-09T07:11:49;11.60;99.90
17240;DHT22;9943;54.378;18.604;2022-09-09T07:14:20;11.40;99.90
17240;DHT22;9943;54.378;18.604;2022-09-09T07:16:48;11.50;99.90
17240;DHT22;9943;54.378;18.604;2022-09-09T07:19:19;11.40;99.90
17240;DHT22;9943;54.378;18.604;2022-09-09T07:21:55;11.50;99.90
17240;DHT22;9943;54.378;18.604;2022-09-09T07:24:23;11.70;99.90
17240;DHT22;9943;54.378;18.604;2022-09-09T07:26:57;11.60;99.90
17240;DHT22;9943;54.378;18.604;2022-09-09T07:29:29;11.40;99.90
17240;DHT22;9943;54.378;18.604;2022-09-09T07:32:06;11.50;99.90
17240;DHT22;9943;54.378;18.604;2022-09-09T07:35:00;11.50;99.90
17240;DHT22;9943;54.378;18.604;2022-09-09T07:37:31;11.40;99.90
17240;DHT22;9943;54.378;18.604;2022-09-09T07:44:09;11.20;99.90
17240;DHT22;9943;54.378;18.604;2022-09-09T07:46:40;11.50;99.90
17240;DHT22;9943;54.378;18.604;2022-09-09T07:49:36;11.60;99.90
17240;DHT22;9943;54.378;18.604;2022-09-09T07:52:17;12.10;99.90
17240;DHT22;9943;54.378;18.604;2022-09-09T07:54:50;11.20;99.90
17240;DHT22;9943;54.378;18.604;2022-09-09T07:57:19;11.40;99.90
17240;DHT22;9943;54.378;18.604;2022-09-09T07:59:47;11.60;99.90
17240;DHT22;9943;54.378;18.604;2022-09-09T08:02:22;11.60;99.90
17240;DHT22;9943;54.378;18.604;2022-09-09T08:04:50;11.70;99.90
17240;DHT22;9943;54.378;18.604;2022-09-09T08:07:17;11.20;99.90
17240;DHT22;9943;54.378;18.604;2022-09-09T08:09:54;11.60;99.90
17240;DHT22;9943;54.378;18.604;2022-09-09T08:12:32;11.80;99.90
17240;DHT22;9943;54.378;18.604;2022-09-09T08:15:24;11.80;99.90
17240;DHT22;9943;54.378;18.604;2022-09-09T08:17:53;10.80;99.90
17240;DHT22;9943;54.378;18.604;2022-09-09T08:20:22;11.70;99.90
17240;DHT22;9943;54.378;18.604;2022-09-09T08:22:55;12.00;99.90
17240;DHT22;9943;54.378;18.604;2022-09-09T08:26:13;11.70;99.90
17240;DHT22;9943;54.378;18.604;2022-09-09T08:28:56;11.80;99.90
17240;DHT22;9943;54.378;18.604;2022-09-09T08:31:32;11.70;99.90
17240;DHT22;9943;54.378;18.604;2022-09-09T08:34:01;11.70;99.90
17240;DHT22;9943;54.378;18.604;2022-09-09T08:36:33;11.70;99.90
17240;DHT22;9943;54.378;18.604;2022-09-09T08:39:01;11.90;99.90
17240;DHT22;9943;54.378;18.604;2022-09-09T08:42:01;11.70;99.90
17240;DHT22;9943;54.378;18.604;2022-09-09T08:44:49;11.60;99.90
17240;DHT22;9943;54.378;18.604;2022-09-09T08:47:37;11.60;99.90
17240;DHT22;9943;54.378;18.604;2022-09-09T08:50:21;11.50;99.90
17240;DHT22;9943;54.378;18.604;2022-09-09T08:53:02;11.70;99.90
17240;DHT22;9943;54.378;18.604;2022-09-09T08:58:43;11.50;99.90
17240;DHT22;9943;54.378;18.604;2022-09-09T09:01:33;11.50;99.90
17240;DHT22;9943;54.378;18.604;2022-09-09T09:07:14;11.60;99.90
17240;DHT22;9943;54.378;18.604;2022-09-09T09:10:03;11.60;99.90
17240;DHT22;9943;54.378;18.604;2022-09-09T09:12:43;11.70;99.90
17240;DHT22;9943;54.378;18.604;2022-09-09T09:15:19;11.70;99.90
17240;DHT22;9943;54.378;18.604;2022-09-09T09:17:49;11.70;99.90
17240;DHT22;9943;54.378;18.604;2022-09-09T09:20:32;11.80;99.90
17240;DHT22;9943;54.378;18.604;2022-09-09T09:26:00;11.80;99.90
17240;DHT22;9943;54.378;18.604;2022-09-09T09:28:32;11.80;99.90
17240;DHT22;9943;54.378;18.604;2022-09-09T09:31:25;11.90;99.90
17240;DHT22;9943;54.378;18.604;2022-09-09T09:33:56;12.00;99.90
17240;DHT22;9943;54.378;18.604;2022-09-09T09:36:53;12.00;99.90
17240;DHT22;9943;54.378;18.604;2022-09-09T09:40:10;12.00;99.90
17240;DHT22;9943;54.378;18.604;2022-09-09T09:43:01;12.00;99.90
17240;DHT22;9943;54.378;18.604;2022-09-09T09:45:43;12.10;99.90
17240;DHT22;9943;54.378;18.604;2022-09-09T09:48:16;12.10;99.90
17240;DHT22;9943;54.378;18.604;2022-09-09T09:50:51;12.00;99.90
17240;DHT22;9943;54.378;18.604;2022-09-09T09:53:27;11.90;99.90
17240;DHT22;9943;54.378;18.604;2022-09-09T09:55:57;12.10;99.90
17240;DHT22;9943;54.378;18.604;2022-09-09T09:58:30;12.10;99.90
17240;DHT22;9943;54.378;18.604;2022-09-09T10:01:01;12.20;99.90
17240;DHT22;9943;54.378;18.604;2022-09-09T10:03:35;12.20;99.90
17240;DHT22;9943;54.378;18.604;2022-09-09T10:06:07;12.20;99.90
17240;DHT22;9943;54.378;18.604;2022-09-09T10:08:45;12.30;99.90
17240;DHT22;9943;54.378;18.604;2022-09-09T10:11:30;12.30;99.90
17240;DHT22;9943;54.378;18.604;2022-09-09T10:14:11;12.30;99.90
17240;DHT22;9943;54.378;18.604;2022-09-09T10:16:52;12.50;99.90
17240;DHT22;9943;54.378;18.604;2022-09-09T10:19:36;12.30;99.90
17240;DHT22;9943;54.378;18.604;2022-09-09T10:22:15;12.30;99.90
17240;DHT22;9943;54.378;18.604;2022-09-09T10:25:19;12.30;99.90
17240;DHT22;9943;54.378;18.604;2022-09-09T10:28:27;11.80;99.90
17240;DHT22;9943;54.378;18.604;2022-09-09T10:31:08;12.20;99.90
17240;DHT22;9943;54.378;18.604;2022-09-09T10:33:51;12.20;99.90
17240;DHT22;9943;54.378;18.604;2022-09-09T10:36:28;12.40;99.90
17240;DHT22;9943;54.378;18.604;2022-09-09T10:45:17;12.60;99.90
17240;DHT22;9943;54.378;18.604;2022-09-09T10:48:11;12.60;99.90
17240;DHT22;9943;54.378;18.604;2022-09-09T10:51:00;12.80;99.90
17240;DHT22;9943;54.378;18.604;2022-09-09T10:53:51;12.70;99.90
17240;DHT22;9943;54.378;18.604;2022-09-09T10:56:37;12.80;99.90
17240;DHT22;9943;54.378;18.604;2022-09-09T10:59:13;12.90;99.90
17240;DHT22;9943;54.378;18.604;2022-09-09T11:01:44;12.80;99.90
17240;DHT22;9943;54.378;18.604;2022-09-09T11:04:19;12.80;99.90
17240;DHT22;9943;54.378;18.604;2022-09-09T11:06:54;12.80;99.90
17240;DHT22;9943;54.378;18.604;2022-09-09T11:09:37;13.00;99.90
17240;DHT22;9943;54.378;18.604;2022-09-09T11:12:15;13.20;99.90
17240;DHT22;9943;54.378;18.604;2022-09-09T11:14:57;13.10;99.90
17240;DHT22;9943;54.378;18.604;2022-09-09T11:17:43;13.00;99.90
17240;DHT22;9943;54.378;18.604;2022-09-09T11:20:21;13.10;99.90
17240;DHT22;9943;54.378;18.604;2022-09-09T11:23:12;13.10;99.90
17240;DHT22;9943;54.378;18.604;2022-09-09T11:26:00;13.10;99.90
17240;DHT22;9943;54.378;18.604;2022-09-09T11:28:46;13.00;99.90
17240;DHT22;9943;54.378;18.604;2022-09-09T11:31:33;12.90;99.90
17240;DHT22;9943;54.378;18.604;2022-09-09T11:34:33;13.00;99.90
17240;DHT22;9943;54.378;18.604;2022-09-09T11:37:40;13.00;99.90
17240;DHT22;9943;54.378;18.604;2022-09-09T11:40:32;12.80;99.90
17240;DHT22;9943;54.378;18.604;2022-09-09T11:43:13;13.00;99.90
17240;DHT22;9943;54.378;18.604;2022-09-09T11:45:52;13.10;99.90
17240;DHT22;9943;54.378;18.604;2022-09-09T11:48:32;13.10;99.90
17240;DHT22;9943;54.378;18.604;2022-09-09T11:51:06;13.00;99.90
17240;DHT22;9943;54.378;18.604;2022-09-09T11:53:46;13.10;99.90
17240;DHT22;9943;54.378;18.604;2022-09-09T11:56:27;13.10;99.90
17240;DHT22;9943;54.378;18.604;2022-09-09T11:59:00;13.00;99.90
17240;DHT22;9943;54.378;18.604;2022-09-09T12:01:40;13.00;99.90
17240;DHT22;9943;54.378;18.604;2022-09-09T12:04:27;13.10;99.90
17240;DHT22;9943;54.378;18.604;2022-09-09T12:06:59;13.40;99.90
17240;DHT22;9943;54.378;18.604;2022-09-09T12:12:30;13.00;99.90
17240;DHT22;9943;54.378;18.604;2022-09-09T12:18:41;13.10;99.90
17240;DHT22;9943;54.378;18.604;2022-09-09T12:21:19;13.00;99.90
17240;DHT22;9943;54.378;18.604;2022-09-09T12:27:11;13.10;99.90
17240;DHT22;9943;54.378;18.604;2022-09-09T12:33:16;13.40;99.90
17240;DHT22;9943;54.378;18.604;2022-09-09T12:35:53;12.90;99.90
17240;DHT22;9943;54.378;18.604;2022-09-09T12:38:29;12.90;99.90
17240;DHT22;9943;54.378;18.604;2022-09-09T12:40:59;12.80;99.90
17240;DHT22;9943;54.378;18.604;2022-09-09T12:43:28;12.70;99.90
17240;DHT22;9943;54.378;18.604;2022-09-09T12:45:58;12.80;99.90
17240;DHT22;9943;54.378;18.604;2022-09-09T12:48:44;12.90;99.90
17240;DHT22;9943;54.378;18.604;2022-09-09T12:51:23;12.90;99.90
17240;DHT22;9943;54.378;18.604;2022-09-09T12:53:53;12.90;99.90
17240;DHT22;9943;54.378;18.604;2022-09-09T12:56:28;13.00;99.90
17240;DHT22;9943;54.378;18.604;2022-09-09T12:59:01;12.80;99.90
17240;DHT22;9943;54.378;18.604;2022-09-09T13:01:31;12.90;99.90
17240;DHT22;9943;54.378;18.604;2022-09-09T13:04:02;12.80;99.90
17240;DHT22;9943;54.378;18.604;2022-09-09T13:09:55;12.80;99.90
17240;DHT22;9943;54.378;18.604;2022-09-09T13:12:25;12.90;99.90
17240;DHT22;9943;54.378;18.604;2022-09-09T13:14:56;12.80;99.90
17240;DHT22;9943;54.378;18.604;2022-09-09T13:17:50;12.90;99.90
17240;DHT22;9943;54.378;18.604;2022-09-09T13:20:20;12.90;99.90
17240;DHT22;9943;54.378;18.604;2022-09-09T13:22:51;13.10;99.90
17240;DHT22;9943;54.378;18.604;2022-09-09T13:26:03;12.90;99.90
17240;DHT22;9943;54.378;18.604;2022-09-09T13:29:29;12.90;99.90
17240;DHT22;9943;54.378;18.604;2022-09-09T13:32:04;13.00;99.90
17240;DHT22;9943;54.378;18.604;2022-09-09T13:34:40;13.10;99.90
17240;DHT22;9943;54.378;18.604;2022-09-09T13:37:32;13.90;99.90
17240;DHT22;9943;54.378;18.604;2022-09-09T13:40:06;13.00;99.90
17240;DHT22;9943;54.378;18.604;2022-09-09T13:46:06;13.40;99.90
17240;DHT22;9943;54.378;18.604;2022-09-09T13:48:57;13.10;99.90
17240;DHT22;9943;54.378;18.604;2022-09-09T13:51:37;12.90;99.90
17240;DHT22;9943;54.378;18.604;2022-09-09T13:54:21;12.80;99.90
17240;DHT22;9943;54.378;18.604;2022-09-09T13:57:16;13.30;99.90
17240;DHT22;9943;54.378;18.604;2022-09-09T13:59:55;13.00;99.90
17240;DHT22;9943;54.378;18.604;2022-09-09T14:05:54;12.90;99.90
17240;DHT22;9943;54.378;18.604;2022-09-09T14:08:38;12.70;99.90
17240;DHT22;9943;54.378;18.604;2022-09-09T14:14:19;13.10;99.90
17240;DHT22;9943;54.378;18.604;2022-09-09T14:17:01;12.90;99.90
17240;DHT22;9943;54.378;18.604;2022-09-09T14:19:38;13.10;99.90
17240;DHT22;9943;54.378;18.604;2022-09-09T14:22:26;12.90;99.90
17240;DHT22;9943;54.378;18.604;2022-09-09T14:25:36;12.90;99.90
17240;DHT22;9943;54.378;18.604;2022-09-09T14:28:37;12.50;99.90
17240;DHT22;9943;54.378;18.604;2022-09-09T14:31:11;13.10;99.90
17240;DHT22;9943;54.378;18.604;2022-09-09T14:33:59;13.00;99.90
17240;DHT22;9943;54.378;18.604;2022-09-09T14:36:52;12.90;99.90
17240;DHT22;9943;54.378;18.604;2022-09-09T14:39:30;13.10;99.90
17240;DHT22;9943;54.378;18.604;2022-09-09T14:42:04;12.90;99.90
17240;DHT22;9943;54.378;18.604;2022-09-09T14:44:44;13.00;99.90
17240;DHT22;9943;54.378;18.604;2022-09-09T14:47:19;12.90;99.90
17240;DHT22;9943;54.378;18.604;2022-09-09T14:49:52;12.90;99.90
17240;DHT22;9943;54.378;18.604;2022-09-09T14:52:25;12.80;99.90
17240;DHT22;9943;54.378;18.604;2022-09-09T14:55:08;12.80;99.90
17240;DHT22;9943;54.378;18.604;2022-09-09T14:57:42;12.70;99.90
17240;DHT22;9943;54.378;18.604;2022-09-09T15:01:06;13.00;99.90
17240;DHT22;9943;54.378;18.604;2022-09-09T15:04:04;12.80;99.90
17240;DHT22;9943;54.378;18.604;2022-09-09T15:06:36;12.80;99.90
17240;DHT22;9943;54.378;18.604;2022-09-09T15:09:09;12.80;99.90
17240;DHT22;9943;54.378;18.604;2022-09-09T15:11:47;12.80;99.90
17240;DHT22;9943;54.378;18.604;2022-09-09T15:14:21;12.90;99.90
17240;DHT22;9943;54.378;18.604;2022-09-09T15:16:52;12.90;99.90
17240;DHT22;9943;54.378;18.604;2022-09-09T15:19:26;13.00;99.90
17240;DHT22;9943;54.378;18.604;2022-09-09T15:22:04;12.90;99.90
17240;DHT22;9943;54.378;18.604;2022-09-09T15:24:36;12.90;99.90
17240;DHT22;9943;54.378;18.604;2022-09-09T15:27:10;12.90;99.90
17240;DHT22;9943;54.378;18.604;2022-09-09T15:29:45;12.70;99.90
17240;DHT22;9943;54.378;18.604;2022-09-09T15:32:22;12.90;99.90
17240;DHT22;9943;54.378;18.604;2022-09-09T15:38:31;12.90;99.90
17240;DHT22;9943;54.378;18.604;2022-09-09T15:41:06;12.90;99.90
17240;DHT22;9943;54.378;18.604;2022-09-09T15:44:19;13.10;99.90
17240;DHT22;9943;54.378;18.604;2022-09-09T15:47:06;12.90;99.90
17240;DHT22;9943;54.378;18.604;2022-09-09T15:49:44;12.80;99.90
17240;DHT22;9943;54.378;18.604;2022-09-09T15:52:12;12.90;99.90
17240;DHT22;9943;54.378;18.604;2022-09-09T15:54:49;12.90;99.90
17240;DHT22;9943;54.378;18.604;2022-09-09T15:57:32;12.90;99.90
17240;DHT22;9943;54.378;18.604;2022-09-09T16:00:18;12.80;99.90
17240;DHT22;9943;54.378;18.604;2022-09-09T16:02:53;13.00;99.90
17240;DHT22;9943;54.378;18.604;2022-09-09T16:05:22;12.90;99.90
17240;DHT22;9943;54.378;18.604;2022-09-09T16:07:52;12.90;99.90
17240;DHT22;9943;54.378;18.604;2022-09-09T16:10:25;12.90;99.90
17240;DHT22;9943;54.378;18.604;2022-09-09T16:12:57;13.00;99.90
17240;DHT22;9943;54.378;18.604;2022-09-09T16:15:27;12.90;99.90
17240;DHT22;9943;54.378;18.604;2022-09-09T16:17:58;12.90;99.90
17240;DHT22;9943;54.378;18.604;2022-09-09T16:20:29;13.00;99.90
17240;DHT22;9943;54.378;18.604;2022-09-09T16:23:07;12.90;99.90
17240;DHT22;9943;54.378;18.604;2022-09-09T16:26:02;12.80;99.90
17240;DHT22;9943;54.378;18.604;2022-09-09T16:32:10;13.00;99.90
17240;DHT22;9943;54.378;18.604;2022-09-09T16:34:46;12.20;99.90
17240;DHT22;9943;54.378;18.604;2022-09-09T16:38:33;12.90;99.90
17240;DHT22;9943;54.378;18.604;2022-09-09T16:45:26;12.90;99.90
17240;DHT22;9943;54.378;18.604;2022-09-09T16:48:14;12.90;99.90
17240;DHT22;9943;54.378;18.604;2022-09-09T16:50:51;13.00;99.90
17240;DHT22;9943;54.378;18.604;2022-09-09T16:53:29;13.00;99.90
17240;DHT22;9943;54.378;18.604;2022-09-09T16:55:58;13.00;99.90
17240;DHT22;9943;54.378;18.604;2022-09-09T16:59:20;13.10;99.90
17240;DHT22;9943;54.378;18.604;2022-09-09T17:02:02;13.00;99.90
17240;DHT22;9943;54.378;18.604;2022-09-09T17:04:35;13.00;99.90
17240;DHT22;9943;54.378;18.604;2022-09-09T17:07:05;13.50;99.90
17240;DHT22;9943;54.378;18.604;2022-09-09T17:09:37;13.00;99.90
17240;DHT22;9943;54.378;18.604;2022-09-09T17:12:15;13.10;99.90
17240;DHT22;9943;54.378;18.604;2022-09-09T17:15:00;13.00;99.90
17240;DHT22;9943;54.378;18.604;2022-09-09T17:17:35;13.00;99.90
17240;DHT22;9943;54.378;18.604;2022-09-09T17:20:34;13.30;99.90
17240;DHT22;9943;54.378;18.604;2022-09-09T17:23:06;14.10;99.90
17240;DHT22;9943;54.378;18.604;2022-09-09T17:25:58;12.50;99.90
17240;DHT22;9943;54.378;18.604;2022-09-09T17:28:47;13.20;99.90
17240;DHT22;9943;54.378;18.604;2022-09-09T17:31:58;12.20;99.90
17240;DHT22;9943;54.378;18.604;2022-09-09T17:34:26;13.10;99.90
17240;DHT22;9943;54.378;18.604;2022-09-09T17:36:59;13.20;99.90
17240;DHT22;9943;54.378;18.604;2022-09-09T17:39:51;13.00;99.90
17240;DHT22;9943;54.378;18.604;2022-09-09T17:42:24;13.10;99.90
17240;DHT22;9943;54.378;18.604;2022-09-09T17:44:57;13.10;99.90
17240;DHT22;9943;54.378;18.604;2022-09-09T17:47:32;13.10;99.90
17240;DHT22;9943;54.378;18.604;2022-09-09T17:50:19;13.10;99.90
17240;DHT22;9943;54.378;18.604;2022-09-09T18:22:31;13.10;99.90
17240;DHT22;9943;54.378;18.604;2022-09-09T18:25:21;13.20;99.90
17240;DHT22;9943;54.378;18.604;2022-09-09T18:27:55;13.20;99.90
17240;DHT22;9943;54.378;18.604;2022-09-09T18:30:26;13.20;99.90
17240;DHT22;9943;54.378;18.604;2022-09-09T18:32:56;13.20;99.90
17240;DHT22;9943;54.378;18.604;2022-09-09T18:35:25;13.20;99.90
17240;DHT22;9943;54.378;18.604;2022-09-09T18:38:04;13.50;99.90
17240;DHT22;9943;54.378;18.604;2022-09-09T18:40:36;13.30;99.90
17240;DHT22;9943;54.378;18.604;2022-09-09T18:43:11;13.30;99.90
17240;DHT22;9943;54.378;18.604;2022-09-09T18:46:02;13.30;99.90
17240;DHT22;9943;54.378;18.604;2022-09-09T18:48:34;13.70;99.90
17240;DHT22;9943;54.378;18.604;2022-09-09T18:51:29;13.30;99.90
17240;DHT22;9943;54.378;18.604;2022-09-09T18:54:07;14.00;99.90
17240;DHT22;9943;54.378;18.604;2022-09-09T19:00:20;13.30;99.90
17240;DHT22;9943;54.378;18.604;2022-09-09T19:02:55;13.50;99.90
17240;DHT22;9943;54.378;18.604;2022-09-09T19:05:29;13.40;99.90
17240;DHT22;9943;54.378;18.604;2022-09-09T19:08:08;13.40;99.90
17240;DHT22;9943;54.378;18.604;2022-09-09T19:10:48;12.90;99.90
17240;DHT22;9943;54.378;18.604;2022-09-09T19:13:23;13.40;99.90
17240;DHT22;9943;54.378;18.604;2022-09-09T19:19:18;13.50;99.90
17240;DHT22;9943;54.378;18.604;2022-09-09T19:22:04;13.40;99.90
17240;DHT22;9943;54.378;18.604;2022-09-09T19:24:42;13.40;99.90
17240;DHT22;9943;54.378;18.604;2022-09-09T19:34:29;13.90;99.90
17240;DHT22;9943;54.378;18.604;2022-09-09T19:37:05;13.40;99.90
17240;DHT22;9943;54.378;18.604;2022-09-09T19:39:39;13.40;99.90
17240;DHT22;9943;54.378;18.604;2022-09-09T19:42:25;13.20;99.90
17240;DHT22;9943;54.378;18.604;2022-09-09T19:44:56;13.30;99.90
17240;DHT22;9943;54.378;18.604;2022-09-09T19:47:43;13.40;99.90
17240;DHT22;9943;54.378;18.604;2022-09-09T19:53:25;13.30;99.90
17240;DHT22;9943;54.378;18.604;2022-09-09T19:55:57;13.40;99.90
17240;DHT22;9943;54.378;18.604;2022-09-09T19:58:28;13.40;99.90
17240;DHT22;9943;54.378;18.604;2022-09-09T20:01:07;13.40;99.90
17240;DHT22;9943;54.378;18.604;2022-09-09T20:03:37;13.60;99.90
17240;DHT22;9943;54.378;18.604;2022-09-09T20:06:18;13.40;99.90
17240;DHT22;9943;54.378;18.604;2022-09-09T20:08:57;13.40;99.90
17240;DHT22;9943;54.378;18.604;2022-09-09T20:11:27;13.40;99.90
17240;DHT22;9943;54.378;18.604;2022-09-09T20:14:04;13.40;99.90
17240;DHT22;9943;54.378;18.604;2022-09-09T20:16:34;13.40;99.90
17240;DHT22;9943;54.378;18.604;2022-09-09T20:19:09;13.40;99.90
17240;DHT22;9943;54.378;18.604;2022-09-09T20:21:48;13.40;99.90
17240;DHT22;9943;54.378;18.604;2022-09-09T20:24:31;13.40;99.90
17240;DHT22;9943;54.378;18.604;2022-09-09T20:27:18;13.40;99.90
17240;DHT22;9943;54.378;18.604;2022-09-09T20:30:09;13.40;99.90
17240;DHT22;9943;54.378;18.604;2022-09-09T20:32:40;13.40;99.90
17240;DHT22;9943;54.378;18.604;2022-09-09T20:35:19;13.50;99.90
17240;DHT22;9943;54.378;18.604;2022-09-09T20:37:56;13.50;99.90
17240;DHT22;9943;54.378;18.604;2022-09-09T20:40:36;12.80;99.90
17240;DHT22;9943;54.378;18.604;2022-09-09T20:43:10;13.60;99.90
17240;DHT22;9943;54.378;18.604;2022-09-09T20:45:43;13.50;99.90
17240;DHT22;9943;54.378;18.604;2022-09-09T20:48:14;13.50;99.90
17240;DHT22;9943;54.378;18.604;2022-09-09T20:50:52;13.50;99.90
17240;DHT22;9943;54.378;18.604;2022-09-09T20:53:23;13.90;99.90
17240;DHT22;9943;54.378;18.604;2022-09-09T20:56:00;13.40;99.90
17240;DHT22;9943;54.378;18.604;2022-09-09T20:58:35;13.70;99.90
17240;DHT22;9943;54.378;18.604;2022-09-09T21:01:05;13.50;99.90
17240;DHT22;9943;54.378;18.604;2022-09-09T21:03:38;13.50;99.90
17240;DHT22;9943;54.378;18.604;2022-09-09T21:06:19;13.40;99.90
17240;DHT22;9943;54.378;18.604;2022-09-09T21:08:49;13.40;99.90
17240;DHT22;9943;54.378;18.604;2022-09-09T21:15:24;13.40;99.90
17240;DHT22;9943;54.378;18.604;2022-09-09T21:17:52;13.60;99.90
17240;DHT22;9943;54.378;18.604;2022-09-09T21:20:22;12.50;99.90
17240;DHT22;9943;54.378;18.604;2022-09-09T21:22:51;13.40;99.90
17240;DHT22;9943;54.378;18.604;2022-09-09T21:25:23;13.40;99.90
17240;DHT22;9943;54.378;18.604;2022-09-09T21:27:55;13.60;99.90
17240;DHT22;9943;54.378;18.604;2022-09-09T21:30:51;13.50;99.90
17240;DHT22;9943;54.378;18.604;2022-09-09T21:33:24;13.50;99.90
17240;DHT22;9943;54.378;18.604;2022-09-09T21:36:05;13.40;99.90
17240;DHT22;9943;54.378;18.604;2022-09-09T21:38:37;13.50;99.90
17240;DHT22;9943;54.378;18.604;2022-09-09T21:41:07;13.40;99.90
17240;DHT22;9943;54.378;18.604;2022-09-09T21:43:50;13.50;99.90
17240;DHT22;9943;54.378;18.604;2022-09-09T21:46:34;13.50;99.90
17240;DHT22;9943;54.378;18.604;2022-09-09T21:49:07;13.50;99.90
17240;DHT22;9943;54.378;18.604;2022-09-09T21:51:48;13.50;99.90
17240;DHT22;9943;54.378;18.604;2022-09-09T21:54:21;13.60;99.90
17240;DHT22;9943;54.378;18.604;2022-09-09T21:56:52;13.60;99.90
17240;DHT22;9943;54.378;18.604;2022-09-09T21:59:39;13.50;99.90
17240;DHT22;9943;54.378;18.604;2022-09-09T22:02:28;13.40;99.90
17240;DHT22;9943;54.378;18.604;2022-09-09T22:05:01;13.50;99.90
17240;DHT22;9943;54.378;18.604;2022-09-09T22:07:39;13.50;99.90